sensor_id;sensor_type;location;lat;lon;timestamp;P1;durP1;ratioP1;P2;durP2;ratioP2
70052;SDS011;57398;52.032;4.376;2023-05-25T00:02:21;10.38;;;3.47;;
70052;SDS011;57398;52.032;4.376;2023-05-25T00:05:10;9.27;;;3.53;;
70052;SDS011;57398;52.032;4.376;2023-05-25T00:08:00;8.82;;;3.30;;
70052;SDS011;57398;52.032;4.376;2023-05-25T00:10:48;10.80;;;3.45;;
70052;SDS011;57398;52.032;4.376;2023-05-25T00:13:37;8.82;;;3.78;;
70052;SDS011;57398;52.032;4.376;2023-05-25T00:16:25;9.88;;;4.25;;
70052;SDS011;57398;52.032;4.376;2023-05-25T00:19:15;10.03;;;3.90;;
70052;SDS011;57398;52.032;4.376;2023-05-25T00:22:04;12.85;;;4.63;;
70052;SDS011;57398;52.032;4.376;2023-05-25T00:24:53;11.38;;;4.70;;
70052;SDS011;57398;52.032;4.376;2023-05-25T00:27:41;14.10;;;4.75;;
70052;SDS011;57398;52.032;4.376;2023-05-25T00:30:29;13.90;;;5.03;;
70052;SDS011;57398;52.032;4.376;2023-05-25T00:33:17;13.30;;;5.10;;
70052;SDS011;57398;52.032;4.376;2023-05-25T00:36:06;13.38;;;4.45;;
70052;SDS011;57398;52.032;4.376;2023-05-25T00:38:55;13.75;;;5.20;;
70052;SDS011;57398;52.032;4.376;2023-05-25T00:41:44;13.38;;;4.90;;
70052;SDS011;57398;52.032;4.376;2023-05-25T00:44:33;14.32;;;5.53;;
70052;SDS011;57398;52.032;4.376;2023-05-25T00:47:22;13.33;;;4.77;;
70052;SDS011;57398;52.032;4.376;2023-05-25T00:50:10;15.18;;;5.00;;
70052;SDS011;57398;52.032;4.376;2023-05-25T00:53:04;15.35;;;4.60;;
70052;SDS011;57398;52.032;4.376;2023-05-25T00:55:55;15.77;;;5.05;;
70052;SDS011;57398;52.032;4.376;2023-05-25T00:58:49;12.75;;;4.60;;
70052;SDS011;57398;52.032;4.376;2023-05-25T01:01:40;15.67;;;4.70;;
70052;SDS011;57398;52.032;4.376;2023-05-25T01:04:30;14.02;;;4.97;;
70052;SDS011;57398;52.032;4.376;2023-05-25T01:07:21;13.82;;;4.78;;
70052;SDS011;57398;52.032;4.376;2023-05-25T01:10:11;17.52;;;4.72;;
70052;SDS011;57398;52.032;4.376;2023-05-25T01:13:02;13.60;;;4.60;;
70052;SDS011;57398;52.032;4.376;2023-05-25T01:15:51;13.33;;;4.97;;
70052;SDS011;57398;52.032;4.376;2023-05-25T01:18:40;14.38;;;4.80;;
70052;SDS011;57398;52.032;4.376;2023-05-25T01:21:31;11.23;;;5.15;;
70052;SDS011;57398;52.032;4.376;2023-05-25T01:24:29;14.10;;;5.40;;
70052;SDS011;57398;52.032;4.376;2023-05-25T01:27:22;13.65;;;5.50;;
70052;SDS011;57398;52.032;4.376;2023-05-25T01:30:14;14.03;;;5.53;;
70052;SDS011;57398;52.032;4.376;2023-05-25T01:33:03;15.43;;;5.35;;
70052;SDS011;57398;52.032;4.376;2023-05-25T01:35:51;12.68;;;5.38;;
70052;SDS011;57398;52.032;4.376;2023-05-25T01:38:41;16.80;;;5.57;;
70052;SDS011;57398;52.032;4.376;2023-05-25T01:41:29;14.07;;;4.93;;
70052;SDS011;57398;52.032;4.376;2023-05-25T01:44:18;16.20;;;6.03;;
70052;SDS011;57398;52.032;4.376;2023-05-25T01:47:08;16.80;;;5.47;;
70052;SDS011;57398;52.032;4.376;2023-05-25T01:50:03;16.63;;;5.63;;
70052;SDS011;57398;52.032;4.376;2023-05-25T01:52:55;14.63;;;6.03;;
70052;SDS011;57398;52.032;4.376;2023-05-25T01:55:49;14.82;;;5.15;;
70052;SDS011;57398;52.032;4.376;2023-05-25T01:58:42;15.83;;;5.23;;
70052;SDS011;57398;52.032;4.376;2023-05-25T02:01:31;13.52;;;5.43;;
70052;SDS011;57398;52.032;4.376;2023-05-25T02:04:22;16.08;;;4.90;;
70052;SDS011;57398;52.032;4.376;2023-05-25T02:07:10;15.35;;;4.90;;
70052;SDS011;57398;52.032;4.376;2023-05-25T02:09:58;12.48;;;5.05;;
70052;SDS011;57398;52.032;4.376;2023-05-25T02:12:48;14.47;;;5.53;;
70052;SDS011;57398;52.032;4.376;2023-05-25T02:15:36;14.43;;;5.38;;
70052;SDS011;57398;52.032;4.376;2023-05-25T02:18:24;15.32;;;5.40;;
70052;SDS011;57398;52.032;4.376;2023-05-25T02:21:13;15.75;;;5.60;;
70052;SDS011;57398;52.032;4.376;2023-05-25T02:24:01;13.10;;;5.72;;
70052;SDS011;57398;52.032;4.376;2023-05-25T02:26:50;16.97;;;5.30;;
70052;SDS011;57398;52.032;4.376;2023-05-25T02:29:39;13.23;;;5.22;;
70052;SDS011;57398;52.032;4.376;2023-05-25T02:32:28;14.20;;;5.35;;
70052;SDS011;57398;52.032;4.376;2023-05-25T02:35:17;13.52;;;5.22;;
70052;SDS011;57398;52.032;4.376;2023-05-25T02:38:05;15.68;;;5.68;;
70052;SDS011;57398;52.032;4.376;2023-05-25T02:40:53;15.47;;;5.70;;
70052;SDS011;57398;52.032;4.376;2023-05-25T02:43:41;18.23;;;5.70;;
70052;SDS011;57398;52.032;4.376;2023-05-25T02:46:30;14.40;;;6.18;;
70052;SDS011;57398;52.032;4.376;2023-05-25T02:49:19;14.80;;;6.00;;
70052;SDS011;57398;52.032;4.376;2023-05-25T02:52:07;16.85;;;6.13;;
70052;SDS011;57398;52.032;4.376;2023-05-25T02:54:55;18.33;;;6.23;;
70052;SDS011;57398;52.032;4.376;2023-05-25T02:57:43;18.23;;;6.25;;
70052;SDS011;57398;52.032;4.376;2023-05-25T03:00:31;20.33;;;5.78;;
70052;SDS011;57398;52.032;4.376;2023-05-25T03:03:20;15.75;;;6.10;;
70052;SDS011;57398;52.032;4.376;2023-05-25T03:06:09;19.60;;;6.57;;
70052;SDS011;57398;52.032;4.376;2023-05-25T03:08:58;14.23;;;6.73;;
70052;SDS011;57398;52.032;4.376;2023-05-25T03:11:47;17.63;;;6.82;;
70052;SDS011;57398;52.032;4.376;2023-05-25T03:14:35;16.85;;;6.65;;
70052;SDS011;57398;52.032;4.376;2023-05-25T03:17:23;18.85;;;7.25;;
70052;SDS011;57398;52.032;4.376;2023-05-25T03:20:13;17.45;;;7.03;;
70052;SDS011;57398;52.032;4.376;2023-05-25T03:23:02;17.17;;;6.43;;
70052;SDS011;57398;52.032;4.376;2023-05-25T03:25:50;16.73;;;6.38;;
70052;SDS011;57398;52.032;4.376;2023-05-25T03:28:38;17.45;;;7.20;;
70052;SDS011;57398;52.032;4.376;2023-05-25T03:31:26;16.08;;;6.97;;
70052;SDS011;57398;52.032;4.376;2023-05-25T03:34:14;17.70;;;6.93;;
70052;SDS011;57398;52.032;4.376;2023-05-25T03:37:04;19.10;;;6.93;;
70052;SDS011;57398;52.032;4.376;2023-05-25T03:39:52;15.40;;;6.28;;
70052;SDS011;57398;52.032;4.376;2023-05-25T03:42:40;17.70;;;7.20;;
70052;SDS011;57398;52.032;4.376;2023-05-25T03:45:28;18.55;;;6.43;;
70052;SDS011;57398;52.032;4.376;2023-05-25T03:48:16;17.27;;;6.75;;
70052;SDS011;57398;52.032;4.376;2023-05-25T03:51:04;17.30;;;6.20;;
70052;SDS011;57398;52.032;4.376;2023-05-25T03:53:54;19.10;;;6.93;;
70052;SDS011;57398;52.032;4.376;2023-05-25T03:56:42;18.30;;;6.75;;
70052;SDS011;57398;52.032;4.376;2023-05-25T03:59:30;20.33;;;7.10;;
70052;SDS011;57398;52.032;4.376;2023-05-25T04:02:18;18.90;;;6.90;;
70052;SDS011;57398;52.032;4.376;2023-05-25T04:05:07;22.83;;;7.57;;
70052;SDS011;57398;52.032;4.376;2023-05-25T04:07:56;21.95;;;8.20;;
70052;SDS011;57398;52.032;4.376;2023-05-25T04:10:46;19.88;;;7.97;;
70052;SDS011;57398;52.032;4.376;2023-05-25T04:13:34;17.50;;;7.38;;
70052;SDS011;57398;52.032;4.376;2023-05-25T04:16:22;19.10;;;7.15;;
70052;SDS011;57398;52.032;4.376;2023-05-25T04:19:11;19.53;;;7.30;;
70052;SDS011;57398;52.032;4.376;2023-05-25T04:21:59;20.02;;;7.40;;
70052;SDS011;57398;52.032;4.376;2023-05-25T04:24:47;22.73;;;7.88;;
70052;SDS011;57398;52.032;4.376;2023-05-25T04:27:36;20.05;;;7.55;;
70052;SDS011;57398;52.032;4.376;2023-05-25T04:30:25;17.08;;;7.18;;
70052;SDS011;57398;52.032;4.376;2023-05-25T04:33:13;18.63;;;7.43;;
70052;SDS011;57398;52.032;4.376;2023-05-25T04:36:03;18.10;;;7.72;;
70052;SDS011;57398;52.032;4.376;2023-05-25T04:38:51;20.42;;;7.97;;
70052;SDS011;57398;52.032;4.376;2023-05-25T04:41:40;20.80;;;7.13;;
70052;SDS011;57398;52.032;4.376;2023-05-25T04:44:30;23.92;;;8.02;;
70052;SDS011;57398;52.032;4.376;2023-05-25T04:47:18;18.67;;;7.83;;
70052;SDS011;57398;52.032;4.376;2023-05-25T04:50:06;20.50;;;7.72;;
70052;SDS011;57398;52.032;4.376;2023-05-25T04:52:55;21.08;;;7.85;;
70052;SDS011;57398;52.032;4.376;2023-05-25T04:55:43;16.48;;;7.63;;
70052;SDS011;57398;52.032;4.376;2023-05-25T04:58:32;20.23;;;7.82;;
70052;SDS011;57398;52.032;4.376;2023-05-25T05:01:21;23.07;;;8.50;;
70052;SDS011;57398;52.032;4.376;2023-05-25T05:04:09;23.30;;;8.38;;
70052;SDS011;57398;52.032;4.376;2023-05-25T05:06:58;22.88;;;7.97;;
70052;SDS011;57398;52.032;4.376;2023-05-25T05:09:46;22.27;;;8.20;;
70052;SDS011;57398;52.032;4.376;2023-05-25T05:12:34;22.23;;;8.30;;
70052;SDS011;57398;52.032;4.376;2023-05-25T05:15:22;21.67;;;8.27;;
70052;SDS011;57398;52.032;4.376;2023-05-25T05:18:11;21.27;;;8.05;;
70052;SDS011;57398;52.032;4.376;2023-05-25T05:21:00;25.95;;;8.40;;
70052;SDS011;57398;52.032;4.376;2023-05-25T05:23:48;23.27;;;8.82;;
70052;SDS011;57398;52.032;4.376;2023-05-25T05:26:37;21.00;;;7.85;;
70052;SDS011;57398;52.032;4.376;2023-05-25T05:29:43;21.70;;;7.93;;
70052;SDS011;57398;52.032;4.376;2023-05-25T05:32:31;22.13;;;8.85;;
70052;SDS011;57398;52.032;4.376;2023-05-25T05:35:21;21.35;;;7.78;;
70052;SDS011;57398;52.032;4.376;2023-05-25T05:38:09;18.50;;;8.48;;
70052;SDS011;57398;52.032;4.376;2023-05-25T05:40:57;20.45;;;8.32;;
70052;SDS011;57398;52.032;4.376;2023-05-25T05:43:45;18.90;;;8.27;;
70052;SDS011;57398;52.032;4.376;2023-05-25T05:46:36;21.95;;;7.90;;
70052;SDS011;57398;52.032;4.376;2023-05-25T05:49:24;18.05;;;6.28;;
70052;SDS011;57398;52.032;4.376;2023-05-25T05:52:14;12.95;;;5.65;;
70052;SDS011;57398;52.032;4.376;2023-05-25T05:55:02;14.75;;;5.45;;
70052;SDS011;57398;52.032;4.376;2023-05-25T05:57:52;12.10;;;5.07;;
70052;SDS011;57398;52.032;4.376;2023-05-25T06:00:40;11.98;;;5.03;;
70052;SDS011;57398;52.032;4.376;2023-05-25T06:03:28;11.07;;;4.50;;
70052;SDS011;57398;52.032;4.376;2023-05-25T06:06:16;12.43;;;5.32;;
70052;SDS011;57398;52.032;4.376;2023-05-25T06:09:06;12.93;;;4.85;;
70052;SDS011;57398;52.032;4.376;2023-05-25T06:11:54;14.20;;;5.20;;
70052;SDS011;57398;52.032;4.376;2023-05-25T06:14:42;14.45;;;4.93;;
70052;SDS011;57398;52.032;4.376;2023-05-25T06:17:34;13.18;;;6.00;;
70052;SDS011;57398;52.032;4.376;2023-05-25T06:20:23;13.95;;;6.15;;
70052;SDS011;57398;52.032;4.376;2023-05-25T06:23:11;11.88;;;5.25;;
70052;SDS011;57398;52.032;4.376;2023-05-25T06:26:03;14.87;;;5.80;;
70052;SDS011;57398;52.032;4.376;2023-05-25T06:28:51;15.10;;;5.72;;
70052;SDS011;57398;52.032;4.376;2023-05-25T06:31:40;16.13;;;5.60;;
70052;SDS011;57398;52.032;4.376;2023-05-25T06:34:28;13.20;;;5.60;;
70052;SDS011;57398;52.032;4.376;2023-05-25T06:37:16;14.07;;;5.40;;
70052;SDS011;57398;52.032;4.376;2023-05-25T06:40:04;14.30;;;5.60;;
70052;SDS011;57398;52.032;4.376;2023-05-25T06:42:56;11.65;;;5.32;;
70052;SDS011;57398;52.032;4.376;2023-05-25T06:45:48;13.65;;;5.30;;
70052;SDS011;57398;52.032;4.376;2023-05-25T06:48:37;12.60;;;4.65;;
70052;SDS011;57398;52.032;4.376;2023-05-25T06:51:26;11.93;;;4.60;;
70052;SDS011;57398;52.032;4.376;2023-05-25T06:54:14;10.47;;;4.80;;
70052;SDS011;57398;52.032;4.376;2023-05-25T06:57:02;10.10;;;4.57;;
70052;SDS011;57398;52.032;4.376;2023-05-25T06:59:51;12.52;;;4.93;;
70052;SDS011;57398;52.032;4.376;2023-05-25T07:02:39;11.50;;;4.85;;
70052;SDS011;57398;52.032;4.376;2023-05-25T07:05:28;13.65;;;4.75;;
70052;SDS011;57398;52.032;4.376;2023-05-25T07:08:16;12.87;;;4.80;;
70052;SDS011;57398;52.032;4.376;2023-05-25T07:11:04;10.20;;;4.90;;
70052;SDS011;57398;52.032;4.376;2023-05-25T07:13:56;11.35;;;4.70;;
70052;SDS011;57398;52.032;4.376;2023-05-25T07:16:45;11.68;;;4.63;;
70052;SDS011;57398;52.032;4.376;2023-05-25T07:19:33;10.65;;;4.10;;
70052;SDS011;57398;52.032;4.376;2023-05-25T07:22:21;12.07;;;4.57;;
70052;SDS011;57398;52.032;4.376;2023-05-25T07:25:09;10.93;;;4.82;;
70052;SDS011;57398;52.032;4.376;2023-05-25T07:27:57;13.07;;;5.35;;
70052;SDS011;57398;52.032;4.376;2023-05-25T07:30:45;12.40;;;5.40;;
70052;SDS011;57398;52.032;4.376;2023-05-25T07:33:35;12.02;;;5.30;;
70052;SDS011;57398;52.032;4.376;2023-05-25T07:36:23;11.20;;;5.37;;
70052;SDS011;57398;52.032;4.376;2023-05-25T07:39:11;14.18;;;6.38;;
70052;SDS011;57398;52.032;4.376;2023-05-25T07:41:59;11.57;;;5.57;;
70052;SDS011;57398;52.032;4.376;2023-05-25T07:44:48;10.63;;;4.68;;
70052;SDS011;57398;52.032;4.376;2023-05-25T07:47:36;10.38;;;4.72;;
70052;SDS011;57398;52.032;4.376;2023-05-25T07:50:25;11.93;;;4.20;;
70052;SDS011;57398;52.032;4.376;2023-05-25T07:53:17;10.40;;;4.20;;
70052;SDS011;57398;52.032;4.376;2023-05-25T07:56:05;9.93;;;4.50;;
70052;SDS011;57398;52.032;4.376;2023-05-25T07:58:56;11.27;;;4.90;;
70052;SDS011;57398;52.032;4.376;2023-05-25T08:01:45;9.27;;;4.25;;
70052;SDS011;57398;52.032;4.376;2023-05-25T08:04:33;12.23;;;5.27;;
70052;SDS011;57398;52.032;4.376;2023-05-25T08:07:24;11.40;;;5.10;;
70052;SDS011;57398;52.032;4.376;2023-05-25T08:10:12;8.20;;;4.40;;
70052;SDS011;57398;52.032;4.376;2023-05-25T08:13:00;8.88;;;4.70;;
70052;SDS011;57398;52.032;4.376;2023-05-25T08:15:48;9.52;;;4.78;;
70052;SDS011;57398;52.032;4.376;2023-05-25T08:18:36;8.43;;;4.30;;
70052;SDS011;57398;52.032;4.376;2023-05-25T08:21:24;11.95;;;5.10;;
70052;SDS011;57398;52.032;4.376;2023-05-25T08:24:15;11.95;;;5.05;;
70052;SDS011;57398;52.032;4.376;2023-05-25T08:27:03;10.40;;;4.90;;
70052;SDS011;57398;52.032;4.376;2023-05-25T08:29:51;10.88;;;3.67;;
70052;SDS011;57398;52.032;4.376;2023-05-25T08:32:39;10.07;;;4.20;;
70052;SDS011;57398;52.032;4.376;2023-05-25T08:35:27;9.95;;;4.50;;
70052;SDS011;57398;52.032;4.376;2023-05-25T08:38:15;10.27;;;4.45;;
70052;SDS011;57398;52.032;4.376;2023-05-25T08:41:05;9.40;;;3.80;;
70052;SDS011;57398;52.032;4.376;2023-05-25T08:43:54;10.35;;;4.22;;
70052;SDS011;57398;52.032;4.376;2023-05-25T08:46:42;12.00;;;5.00;;
70052;SDS011;57398;52.032;4.376;2023-05-25T08:49:34;10.05;;;4.43;;
70052;SDS011;57398;52.032;4.376;2023-05-25T08:52:25;10.10;;;4.20;;
70052;SDS011;57398;52.032;4.376;2023-05-25T08:55:19;7.75;;;3.55;;
70052;SDS011;57398;52.032;4.376;2023-05-25T08:58:12;8.20;;;3.33;;
70052;SDS011;57398;52.032;4.376;2023-05-25T09:01:04;9.60;;;3.73;;
70052;SDS011;57398;52.032;4.376;2023-05-25T09:03:57;10.25;;;3.63;;
70052;SDS011;57398;52.032;4.376;2023-05-25T09:06:47;8.77;;;3.67;;
70052;SDS011;57398;52.032;4.376;2023-05-25T09:09:54;8.05;;;3.65;;
70052;SDS011;57398;52.032;4.376;2023-05-25T09:12:44;8.02;;;3.40;;
70052;SDS011;57398;52.032;4.376;2023-05-25T09:15:35;9.30;;;3.57;;
70052;SDS011;57398;52.032;4.376;2023-05-25T09:18:23;10.20;;;3.72;;
70052;SDS011;57398;52.032;4.376;2023-05-25T09:21:11;9.73;;;3.60;;
70052;SDS011;57398;52.032;4.376;2023-05-25T09:23:59;9.05;;;3.50;;
70052;SDS011;57398;52.032;4.376;2023-05-25T09:26:48;9.15;;;3.33;;
70052;SDS011;57398;52.032;4.376;2023-05-25T09:29:36;8.60;;;3.30;;
70052;SDS011;57398;52.032;4.376;2023-05-25T09:32:25;7.22;;;3.10;;
70052;SDS011;57398;52.032;4.376;2023-05-25T09:35:13;7.82;;;2.88;;
70052;SDS011;57398;52.032;4.376;2023-05-25T09:38:02;7.68;;;3.08;;
70052;SDS011;57398;52.032;4.376;2023-05-25T09:40:50;6.85;;;3.20;;
70052;SDS011;57398;52.032;4.376;2023-05-25T09:43:39;7.60;;;3.27;;
70052;SDS011;57398;52.032;4.376;2023-05-25T09:46:40;7.97;;;3.75;;
70052;SDS011;57398;52.032;4.376;2023-05-25T09:49:31;9.82;;;3.50;;
70052;SDS011;57398;52.032;4.376;2023-05-25T09:52:19;7.90;;;3.17;;
70052;SDS011;57398;52.032;4.376;2023-05-25T09:55:07;8.10;;;3.20;;
70052;SDS011;57398;52.032;4.376;2023-05-25T09:57:58;7.30;;;2.80;;
70052;SDS011;57398;52.032;4.376;2023-05-25T10:00:46;8.38;;;3.10;;
70052;SDS011;57398;52.032;4.376;2023-05-25T10:03:34;8.27;;;3.30;;
70052;SDS011;57398;52.032;4.376;2023-05-25T10:06:23;7.13;;;3.13;;
70052;SDS011;57398;52.032;4.376;2023-05-25T10:09:12;8.32;;;3.17;;
70052;SDS011;57398;52.032;4.376;2023-05-25T10:12:02;6.27;;;2.73;;
70052;SDS011;57398;52.032;4.376;2023-05-25T10:14:50;7.35;;;3.20;;
70052;SDS011;57398;52.032;4.376;2023-05-25T10:17:42;7.97;;;3.08;;
70052;SDS011;57398;52.032;4.376;2023-05-25T10:20:32;8.32;;;3.30;;
70052;SDS011;57398;52.032;4.376;2023-05-25T10:23:22;10.20;;;3.78;;
70052;SDS011;57398;52.032;4.376;2023-05-25T10:26:11;12.20;;;4.20;;
70052;SDS011;57398;52.032;4.376;2023-05-25T10:29:02;12.95;;;4.30;;
70052;SDS011;57398;52.032;4.376;2023-05-25T10:31:51;9.18;;;3.67;;
70052;SDS011;57398;52.032;4.376;2023-05-25T10:34:40;10.75;;;3.85;;
70052;SDS011;57398;52.032;4.376;2023-05-25T10:37:28;11.05;;;3.90;;
70052;SDS011;57398;52.032;4.376;2023-05-25T10:40:19;11.87;;;4.10;;
70052;SDS011;57398;52.032;4.376;2023-05-25T10:43:08;9.95;;;3.83;;
70052;SDS011;57398;52.032;4.376;2023-05-25T10:45:57;10.65;;;4.20;;
70052;SDS011;57398;52.032;4.376;2023-05-25T10:48:45;10.95;;;4.20;;
70052;SDS011;57398;52.032;4.376;2023-05-25T10:51:38;9.32;;;4.25;;
70052;SDS011;57398;52.032;4.376;2023-05-25T10:54:29;10.73;;;4.57;;
70052;SDS011;57398;52.032;4.376;2023-05-25T10:57:19;10.25;;;4.47;;
70052;SDS011;57398;52.032;4.376;2023-05-25T11:00:09;12.27;;;5.10;;
70052;SDS011;57398;52.032;4.376;2023-05-25T11:03:00;10.18;;;4.90;;
70052;SDS011;57398;52.032;4.376;2023-05-25T11:05:49;10.73;;;5.03;;
70052;SDS011;57398;52.032;4.376;2023-05-25T11:08:47;11.97;;;4.73;;
70052;SDS011;57398;52.032;4.376;2023-05-25T11:18:00;8.13;;;4.03;;
70052;SDS011;57398;52.032;4.376;2023-05-25T11:20:48;12.45;;;5.20;;
70052;SDS011;57398;52.032;4.376;2023-05-25T11:23:38;11.27;;;4.93;;
70052;SDS011;57398;52.032;4.376;2023-05-25T11:26:50;7.95;;;3.70;;
70052;SDS011;57398;52.032;4.376;2023-05-25T11:29:40;7.45;;;3.70;;
70052;SDS011;57398;52.032;4.376;2023-05-25T11:32:30;9.50;;;3.80;;
70052;SDS011;57398;52.032;4.376;2023-05-25T11:35:18;9.77;;;4.50;;
70052;SDS011;57398;52.032;4.376;2023-05-25T11:38:08;9.73;;;4.40;;
70052;SDS011;57398;52.032;4.376;2023-05-25T11:40:56;12.43;;;4.40;;
70052;SDS011;57398;52.032;4.376;2023-05-25T11:43:45;12.20;;;3.97;;
70052;SDS011;57398;52.032;4.376;2023-05-25T11:46:34;13.38;;;4.18;;
70052;SDS011;57398;52.032;4.376;2023-05-25T11:49:25;10.60;;;3.63;;
70052;SDS011;57398;52.032;4.376;2023-05-25T11:52:14;11.67;;;3.50;;
70052;SDS011;57398;52.032;4.376;2023-05-25T11:55:08;9.60;;;3.42;;
70052;SDS011;57398;52.032;4.376;2023-05-25T11:57:58;8.57;;;3.55;;
70052;SDS011;57398;52.032;4.376;2023-05-25T12:00:46;7.95;;;3.08;;
70052;SDS011;57398;52.032;4.376;2023-05-25T12:03:34;7.70;;;3.47;;
70052;SDS011;57398;52.032;4.376;2023-05-25T12:06:24;9.30;;;3.73;;
70052;SDS011;57398;52.032;4.376;2023-05-25T12:09:13;9.13;;;3.20;;
70052;SDS011;57398;52.032;4.376;2023-05-25T12:12:06;6.80;;;3.15;;
70052;SDS011;57398;52.032;4.376;2023-05-25T12:14:55;6.80;;;3.15;;
70052;SDS011;57398;52.032;4.376;2023-05-25T12:17:44;8.55;;;3.30;;
70052;SDS011;57398;52.032;4.376;2023-05-25T12:20:33;8.43;;;2.90;;
70052;SDS011;57398;52.032;4.376;2023-05-25T12:23:25;8.98;;;2.80;;
70052;SDS011;57398;52.032;4.376;2023-05-25T12:26:14;9.88;;;2.85;;
70052;SDS011;57398;52.032;4.376;2023-05-25T12:29:05;8.60;;;2.92;;
70052;SDS011;57398;52.032;4.376;2023-05-25T12:32:00;6.97;;;2.30;;
70052;SDS011;57398;52.032;4.376;2023-05-25T12:34:49;5.73;;;2.10;;
70052;SDS011;57398;52.032;4.376;2023-05-25T12:37:37;6.97;;;2.20;;
70052;SDS011;57398;52.032;4.376;2023-05-25T12:40:27;6.15;;;2.38;;
70052;SDS011;57398;52.032;4.376;2023-05-25T12:43:15;7.05;;;2.60;;
70052;SDS011;57398;52.032;4.376;2023-05-25T12:46:03;7.95;;;2.80;;
70052;SDS011;57398;52.032;4.376;2023-05-25T12:48:52;7.47;;;2.20;;
70052;SDS011;57398;52.032;4.376;2023-05-25T12:51:40;8.20;;;2.55;;
70052;SDS011;57398;52.032;4.376;2023-05-25T12:54:35;7.72;;;2.35;;
70052;SDS011;57398;52.032;4.376;2023-05-25T12:57:33;6.43;;;2.50;;
70052;SDS011;57398;52.032;4.376;2023-05-25T13:00:22;4.80;;;2.28;;
70052;SDS011;57398;52.032;4.376;2023-05-25T13:03:12;8.10;;;2.30;;
70052;SDS011;57398;52.032;4.376;2023-05-25T13:06:00;7.10;;;2.75;;
70052;SDS011;57398;52.032;4.376;2023-05-25T13:08:49;8.88;;;3.30;;
70052;SDS011;57398;52.032;4.376;2023-05-25T13:11:37;8.85;;;3.00;;
70052;SDS011;57398;52.032;4.376;2023-05-25T13:14:27;7.43;;;3.13;;
70052;SDS011;57398;52.032;4.376;2023-05-25T13:17:15;7.43;;;2.73;;
70052;SDS011;57398;52.032;4.376;2023-05-25T13:20:04;8.50;;;3.00;;
70052;SDS011;57398;52.032;4.376;2023-05-25T13:22:53;8.80;;;2.78;;
70052;SDS011;57398;52.032;4.376;2023-05-25T13:25:42;9.48;;;3.05;;
70052;SDS011;57398;52.032;4.376;2023-05-25T13:28:30;9.52;;;2.83;;
70052;SDS011;57398;52.032;4.376;2023-05-25T13:31:20;9.73;;;3.37;;
70052;SDS011;57398;52.032;4.376;2023-05-25T13:34:08;9.15;;;3.13;;
70052;SDS011;57398;52.032;4.376;2023-05-25T13:36:56;8.63;;;3.10;;
70052;SDS011;57398;52.032;4.376;2023-05-25T13:39:44;9.75;;;3.50;;
70052;SDS011;57398;52.032;4.376;2023-05-25T13:42:32;9.45;;;3.20;;
70052;SDS011;57398;52.032;4.376;2023-05-25T13:45:19;11.27;;;3.43;;
70052;SDS011;57398;52.032;4.376;2023-05-25T13:48:09;10.77;;;3.15;;
70052;SDS011;57398;52.032;4.376;2023-05-25T13:50:57;7.13;;;3.10;;
70052;SDS011;57398;52.032;4.376;2023-05-25T13:53:45;9.32;;;2.90;;
70052;SDS011;57398;52.032;4.376;2023-05-25T13:56:34;9.30;;;3.05;;
70052;SDS011;57398;52.032;4.376;2023-05-25T13:59:22;9.17;;;2.70;;
70052;SDS011;57398;52.032;4.376;2023-05-25T14:02:10;7.40;;;2.50;;
70052;SDS011;57398;52.032;4.376;2023-05-25T14:05:00;10.48;;;2.55;;
70052;SDS011;57398;52.032;4.376;2023-05-25T14:07:48;7.93;;;2.60;;
70052;SDS011;57398;52.032;4.376;2023-05-25T14:10:37;9.18;;;2.65;;
70052;SDS011;57398;52.032;4.376;2023-05-25T14:13:26;9.90;;;2.90;;
70052;SDS011;57398;52.032;4.376;2023-05-25T14:16:14;9.80;;;2.90;;
70052;SDS011;57398;52.032;4.376;2023-05-25T14:19:02;10.48;;;2.70;;
70052;SDS011;57398;52.032;4.376;2023-05-25T14:21:52;10.02;;;2.70;;
70052;SDS011;57398;52.032;4.376;2023-05-25T14:24:43;9.82;;;2.97;;
70052;SDS011;57398;52.032;4.376;2023-05-25T14:27:31;10.23;;;2.57;;
70052;SDS011;57398;52.032;4.376;2023-05-25T14:30:19;8.40;;;2.47;;
70052;SDS011;57398;52.032;4.376;2023-05-25T14:33:07;9.93;;;3.35;;
70052;SDS011;57398;52.032;4.376;2023-05-25T14:35:59;9.77;;;2.60;;
70052;SDS011;57398;52.032;4.376;2023-05-25T14:38:49;9.73;;;2.83;;
70052;SDS011;57398;52.032;4.376;2023-05-25T14:41:37;10.43;;;2.80;;
70052;SDS011;57398;52.032;4.376;2023-05-25T14:44:25;8.68;;;3.25;;
70052;SDS011;57398;52.032;4.376;2023-05-25T14:47:13;11.65;;;3.03;;
70052;SDS011;57398;52.032;4.376;2023-05-25T14:50:01;10.25;;;2.95;;
70052;SDS011;57398;52.032;4.376;2023-05-25T14:52:49;11.77;;;2.97;;
70052;SDS011;57398;52.032;4.376;2023-05-25T14:55:39;7.73;;;2.50;;
70052;SDS011;57398;52.032;4.376;2023-05-25T14:58:27;8.80;;;2.75;;
70052;SDS011;57398;52.032;4.376;2023-05-25T15:01:17;10.13;;;2.90;;
70052;SDS011;57398;52.032;4.376;2023-05-25T15:04:07;14.23;;;2.47;;
70052;SDS011;57398;52.032;4.376;2023-05-25T15:06:55;12.98;;;2.72;;
70052;SDS011;57398;52.032;4.376;2023-05-25T15:09:43;11.73;;;2.80;;
70052;SDS011;57398;52.032;4.376;2023-05-25T15:12:33;12.52;;;3.08;;
70052;SDS011;57398;52.032;4.376;2023-05-25T15:15:21;12.27;;;2.58;;
70052;SDS011;57398;52.032;4.376;2023-05-25T15:18:09;10.98;;;2.60;;
70052;SDS011;57398;52.032;4.376;2023-05-25T15:20:57;12.00;;;3.33;;
70052;SDS011;57398;52.032;4.376;2023-05-25T15:23:45;14.47;;;2.60;;
70052;SDS011;57398;52.032;4.376;2023-05-25T15:26:33;12.75;;;2.33;;
70052;SDS011;57398;52.032;4.376;2023-05-25T15:29:23;14.50;;;2.90;;
70052;SDS011;57398;52.032;4.376;2023-05-25T15:32:11;10.32;;;2.55;;
70052;SDS011;57398;52.032;4.376;2023-05-25T15:35:03;11.80;;;2.47;;
70052;SDS011;57398;52.032;4.376;2023-05-25T15:37:51;10.57;;;2.37;;
70052;SDS011;57398;52.032;4.376;2023-05-25T15:40:40;13.82;;;3.00;;
70052;SDS011;57398;52.032;4.376;2023-05-25T15:43:29;12.90;;;2.70;;
70052;SDS011;57398;52.032;4.376;2023-05-25T15:46:18;10.63;;;2.85;;
70052;SDS011;57398;52.032;4.376;2023-05-25T15:49:06;11.05;;;2.80;;
70052;SDS011;57398;52.032;4.376;2023-05-25T15:51:58;14.77;;;2.70;;
70052;SDS011;57398;52.032;4.376;2023-05-25T15:54:46;13.38;;;2.70;;
70052;SDS011;57398;52.032;4.376;2023-05-25T15:57:34;11.73;;;3.03;;
70052;SDS011;57398;52.032;4.376;2023-05-25T16:00:22;12.23;;;2.97;;
70052;SDS011;57398;52.032;4.376;2023-05-25T16:03:12;12.05;;;2.63;;
70052;SDS011;57398;52.032;4.376;2023-05-25T16:06:01;12.10;;;2.87;;
70052;SDS011;57398;52.032;4.376;2023-05-25T16:08:49;15.43;;;2.83;;
70052;SDS011;57398;52.032;4.376;2023-05-25T16:11:37;12.25;;;2.63;;
70052;SDS011;57398;52.032;4.376;2023-05-25T16:14:25;14.57;;;3.10;;
70052;SDS011;57398;52.032;4.376;2023-05-25T16:17:13;10.27;;;2.70;;
70052;SDS011;57398;52.032;4.376;2023-05-25T16:20:03;10.63;;;2.40;;
70052;SDS011;57398;52.032;4.376;2023-05-25T16:22:52;11.98;;;2.95;;
70052;SDS011;57398;52.032;4.376;2023-05-25T16:25:40;11.93;;;3.13;;
70052;SDS011;57398;52.032;4.376;2023-05-25T16:28:29;14.32;;;2.75;;
70052;SDS011;57398;52.032;4.376;2023-05-25T16:31:17;13.98;;;2.90;;
70052;SDS011;57398;52.032;4.376;2023-05-25T16:34:05;13.37;;;3.57;;
70052;SDS011;57398;52.032;4.376;2023-05-25T16:36:55;12.60;;;2.88;;
70052;SDS011;57398;52.032;4.376;2023-05-25T16:39:43;13.35;;;3.00;;
70052;SDS011;57398;52.032;4.376;2023-05-25T16:42:31;12.82;;;3.08;;
70052;SDS011;57398;52.032;4.376;2023-05-25T16:45:19;14.55;;;3.40;;
70052;SDS011;57398;52.032;4.376;2023-05-25T16:48:07;14.30;;;2.70;;
70052;SDS011;57398;52.032;4.376;2023-05-25T16:50:55;14.10;;;3.05;;
70052;SDS011;57398;52.032;4.376;2023-05-25T16:53:45;13.70;;;2.90;;
70052;SDS011;57398;52.032;4.376;2023-05-25T16:56:33;11.93;;;2.80;;